Time;durP1;ratioP1;P1;durP2;ratioP2;P2;SDS_P1;SDS_P2;PMS_P1;PMS_P2;Temp;Humidity;BMP_temperature;BMP_pressure;BME280_temperature;BME280_humidity;BME280_pressure;Samples;Min_cycle;Max_cycle;Signal;HPM_P1;HPM_P2
2023/05/03 00:04:40;;;;;;;6.73;5.83;;;;;;;13.15;43.75;100573.19;10503847;28;20581;-63
2023/05/03 00:09:42;;;;;;;10.50;5.73;;;;;;;10.90;46.20;100556.59;10509327;28;20744;-63
2023/05/03 00:14:44;;;;;;;7.53;6.07;;;;;;;11.86;45.92;100631.81;10519556;28;20237;-63
2023/05/03 00:19:47;;;;;;;7.20;6.33;;;;;;;11.50;46.41;100629.53;10524749;28;20230;-62
2023/05/03 00:24:50;;;;;;;7.93;6.70;;;;;;;11.12;46.92;100608.63;10520651;28;20725;-63
2023/05/03 00:29:51;;;;;;;8.70;6.43;;;;;;;11.37;45.80;100617.50;10520045;28;20235;-63
2023/05/03 00:34:56;;;;;;;7.97;6.67;;;;;;;10.62;47.63;100577.44;10516201;28;20230;-62
2023/05/03 00:39:58;;;;;;;9.80;6.70;;;;;;;11.50;46.09;100625.00;10519023;28;20262;-62
2023/05/03 00:44:59;;;;;;;7.37;5.87;;;;;;;12.62;44.81;100581.16;10522080;28;20230;-63
2023/05/03 00:50:01;;;;;;;7.03;6.00;;;;;;;12.34;44.57;100595.06;10515684;28;20241;-63
2023/05/03 00:55:05;;;;;;;6.97;5.83;;;;;;;10.97;46.56;100592.38;10522289;28;20824;-62
2023/05/03 01:00:09;;;;;;;9.03;6.77;;;;;;;12.79;44.33;100571.97;10511516;28;20249;-63
2023/05/03 01:05:11;;;;;;;10.73;6.33;;;;;;;12.95;43.59;100580.91;10516288;28;20259;-63
2023/05/03 01:10:46;;;;;;;8.83;6.20;;;;;;;12.61;43.94;100609.03;10513679;28;20234;-63
2023/05/03 01:16:05;;;;;;;8.13;5.67;;;;;;;11.24;44.06;100568.94;10513802;28;20229;-63
2023/05/03 01:21:09;;;;;;;7.90;6.10;;;;;;;11.45;45.53;100632.69;10519439;28;20745;-62
2023/05/03 01:26:15;;;;;;;7.30;5.77;;;;;;;12.15;44.49;100607.06;10521677;28;20231;-63
2023/05/03 01:31:41;;;;;;;10.20;6.50;;;;;;;10.69;46.54;100597.19;10514876;28;20226;-63
2023/05/03 01:36:44;;;;;;;6.83;6.13;;;;;;;11.09;45.68;100626.88;10525754;28;20230;-63
2023/05/03 01:41:49;;;;;;;8.60;6.33;;;;;;;9.52;48.71;100511.41;10526624;28;20241;-63
2023/05/03 01:46:51;;;;;;;9.03;6.43;;;;;;;10.10;47.08;100595.34;10526351;28;20234;-63
2023/05/03 01:51:53;;;;;;;8.40;6.10;;;;;;;10.72;46.30;100625.47;10520439;28;20725;-63
2023/05/03 01:56:54;;;;;;;12.50;6.37;;;;;;;10.13;46.98;100595.03;10523508;28;20281;-62
2023/05/03 02:01:56;;;;;;;9.97;6.10;;;;;;;11.24;45.44;100633.25;10523413;28;20721;-63
2023/05/03 02:06:57;;;;;;;10.10;6.57;;;;;;;10.43;45.56;100602.66;10523848;28;20298;-63
2023/05/03 02:11:59;;;;;;;7.67;6.40;;;;;;;9.61;46.91;100552.34;10521531;28;20863;-63
2023/05/03 02:17:01;;;;;;;12.17;6.30;;;;;;;9.22;48.04;100513.56;10509100;28;20769;-62
2023/05/03 02:22:03;;;;;;;7.93;5.83;;;;;;;10.00;47.40;100612.53;10522474;28;20250;-62
2023/05/03 02:27:05;;;;;;;10.73;7.10;;;;;;;8.56;49.39;100524.72;10514661;28;20789;-62
2023/05/03 02:32:07;;;;;;;7.80;6.50;;;;;;;9.97;47.94;100624.38;10523409;28;20237;-62
2023/05/03 02:37:09;;;;;;;8.00;6.60;;;;;;;9.37;48.16;100625.19;10520467;28;20249;-63
2023/05/03 02:42:10;;;;;;;10.87;7.00;;;;;;;9.14;48.69;100631.00;10522251;28;20646;-63
2023/05/03 02:47:12;;;;;;;8.47;6.47;;;;;;;9.55;48.28;100630.47;10514981;28;20247;-62
2023/05/03 02:52:14;;;;;;;9.57;6.70;;;;;;;8.66;49.25;100618.88;10504704;28;20230;-62
2023/05/03 02:57:15;;;;;;;10.33;7.30;;;;;;;8.00;49.99;100566.63;10516108;28;20226;-63
2023/05/03 03:02:17;;;;;;;10.13;6.30;;;;;;;8.48;49.29;100609.00;10511529;28;20645;-62
2023/05/03 03:07:18;;;;;;;10.30;6.50;;;;;;;8.58;49.14;100618.78;10518996;28;20238;-62
2023/05/03 03:12:20;;;;;;;9.33;7.30;;;;;;;7.85;50.97;100577.78;10503417;28;20237;-62
2023/05/03 03:17:22;;;;;;;12.23;7.53;;;;;;;8.79;49.49;100605.13;10507558;28;20242;-62
2023/05/03 03:22:26;;;;;;;8.43;6.57;;;;;;;8.88;49.42;100612.25;10521275;28;20222;-62
2023/05/03 03:27:28;;;;;;;10.13;7.27;;;;;;;8.29;49.79;100606.47;10514755;28;20225;-63
2023/05/03 03:32:30;;;;;;;10.90;6.97;;;;;;;8.18;49.61;100604.81;10528708;28;20231;-62
2023/05/03 03:37:31;;;;;;;10.60;7.37;;;;;;;9.54;47.12;100643.00;10516064;28;20253;-62
2023/05/03 03:42:33;;;;;;;9.83;6.93;;;;;;;10.06;46.69;100638.66;10520210;28;20237;-62
2023/05/03 03:47:34;;;;;;;8.50;6.60;;;;;;;10.12;46.43;100656.72;10529280;28;20753;-63
2023/05/03 03:52:36;;;;;;;10.80;7.47;;;;;;;9.84;46.89;100683.66;10519919;28;20226;-62
2023/05/03 03:57:38;;;;;;;12.27;6.90;;;;;;;10.46;45.32;100666.53;10520374;28;20231;-63
2023/05/03 04:02:39;;;;;;;9.40;7.00;;;;;;;9.48;46.66;100709.56;10517326;28;20242;-63
2023/05/03 04:07:41;;;;;;;9.67;7.00;;;;;;;11.01;44.65;100649.97;10507657;28;20752;-63
2023/05/03 04:12:43;;;;;;;12.07;7.00;;;;;;;10.97;44.49;100671.91;10523809;28;20227;-63
2023/05/03 04:17:45;;;;;;;8.30;5.80;;;;;;;11.14;44.40;100680.78;10524214;28;20235;-63
2023/05/03 04:22:46;;;;;;;10.43;6.97;;;;;;;11.75;43.55;100697.38;10521285;28;20222;-63
2023/05/03 04:27:48;;;;;;;10.90;6.97;;;;;;;11.68;43.42;100686.50;10521816;28;20280;-62
2023/05/03 04:32:53;;;;;;;11.00;6.67;;;;;;;10.66;44.40;100710.78;10525707;28;20240;-62
2023/05/03 04:37:55;;;;;;;9.53;6.20;;;;;;;9.82;45.76;100716.84;10527939;28;20234;-63
2023/05/03 04:42:56;;;;;;;8.70;6.77;;;;;;;10.74;45.17;100703.78;10521239;28;20222;-63
2023/05/03 04:47:58;;;;;;;7.90;6.83;;;;;;;10.37;45.81;100721.03;10522238;28;20233;-62
2023/05/03 04:53:00;;;;;;;10.93;7.00;;;;;;;9.64;46.63;100744.44;10528621;28;20779;-63
2023/05/03 04:58:01;;;;;;;12.77;6.77;;;;;;;8.96;48.14;100712.91;10516895;28;20235;-63
2023/05/03 05:03:05;;;;;;;10.10;6.33;;;;;;;8.98;47.92;100722.47;10508949;28;20249;-63
2023/05/03 05:08:06;;;;;;;10.23;7.67;;;;;;;10.42;45.55;100705.34;10491949;28;20234;-63
2023/05/03 05:13:08;;;;;;;10.07;6.97;;;;;;;8.97;47.60;100711.94;10498215;28;20322;-63
2023/05/03 05:18:10;;;;;;;12.50;7.53;;;;;;;12.40;43.00;100719.66;10497811;28;20231;-63
2023/05/03 05:23:11;;;;;;;12.30;7.17;;;;;;;10.33;45.70;100737.41;10491653;28;20763;-62
2023/05/03 05:28:13;;;;;;;12.13;7.37;;;;;;;9.80;46.17;100726.84;10491800;28;20232;-63
2023/05/03 05:33:14;;;;;;;10.90;7.70;;;;;;;9.72;46.99;100746.31;10496772;28;20215;-63
2023/05/03 05:38:19;;;;;;;8.57;6.90;;;;;;;10.52;46.49;100725.59;10483656;28;20548;-63
2023/05/03 05:43:21;;;;;;;9.63;6.97;;;;;;;10.82;46.00;100704.66;10487924;28;20651;-62
2023/05/03 05:48:22;;;;;;;10.50;7.20;;;;;;;10.19;47.14;100755.88;10490000;28;20258;-63
2023/05/03 05:53:24;;;;;;;10.20;7.43;;;;;;;10.64;46.29;100723.47;10495935;28;20209;-63
2023/05/03 05:58:26;;;;;;;11.03;7.93;;;;;;;10.23;46.80;100723.31;10485624;28;20227;-63
2023/05/03 06:03:27;;;;;;;9.13;7.60;;;;;;;10.41;47.56;100736.63;10492118;28;20256;-63
2023/05/03 06:08:29;;;;;;;9.87;6.97;;;;;;;10.45;46.95;100737.13;10494592;28;20231;-63
2023/05/03 06:13:33;;;;;;;17.70;8.27;;;;;;;10.69;46.13;100726.50;10486506;28;20215;-63
2023/05/03 06:18:34;;;;;;;12.47;7.37;;;;;;;10.32;47.39;100729.53;10481671;28;20231;-63
2023/05/03 06:23:38;;;;;;;9.77;7.87;;;;;;;11.44;46.67;100698.88;10482686;28;20514;-63
2023/05/03 06:28:40;;;;;;;11.67;7.50;;;;;;;10.10;48.94;100736.28;10484621;28;20710;-63
2023/05/03 06:33:41;;;;;;;14.27;8.40;;;;;;;12.56;45.28;100722.31;10482967;28;20231;-63
2023/05/03 06:38:43;;;;;;;10.57;8.27;;;;;;;10.83;47.40;100706.34;10476305;28;20261;-62
2023/05/03 06:43:44;;;;;;;10.07;8.23;;;;;;;11.24;46.96;100684.97;10483265;28;20239;-62
2023/05/03 06:48:46;;;;;;;10.90;8.13;;;;;;;12.74;45.43;100719.38;10475129;28;20239;-63
2023/05/03 06:53:48;;;;;;;10.73;8.50;;;;;;;10.97;47.09;100701.34;10489849;28;20609;-63
2023/05/03 06:58:49;;;;;;;11.80;8.43;;;;;;;11.95;47.08;100713.94;10491044;28;20253;-62
2023/05/03 07:03:51;;;;;;;10.90;8.50;;;;;;;11.97;47.28;100703.88;10483441;28;20775;-63
2023/05/03 07:08:53;;;;;;;12.77;8.77;;;;;;;11.19;48.05;100718.63;10472981;28;20243;-61
2023/05/03 07:13:55;;;;;;;10.20;8.70;;;;;;;12.35;46.01;100672.72;10482665;28;20231;-63
2023/05/03 07:18:56;;;;;;;13.43;9.10;;;;;;;12.33;47.36;100695.34;10476185;28;20246;-62
2023/05/03 07:23:58;;;;;;;13.60;8.90;;;;;;;11.29;48.00;100697.88;10494233;28;20230;-63
2023/05/03 07:29:00;;;;;;;11.93;8.17;;;;;;;13.68;45.47;100692.31;10475717;28;23355;-62
2023/05/03 07:34:01;;;;;;;10.97;8.73;;;;;;;12.83;45.93;100632.38;10489603;28;20226;-63
2023/05/03 07:39:03;;;;;;;11.40;8.27;;;;;;;13.87;46.01;100684.75;10486603;28;20234;-63
2023/05/03 07:44:05;;;;;;;12.53;8.00;;;;;;;12.27;46.55;100615.56;10493244;28;20236;-63
2023/05/03 07:49:07;;;;;;;11.73;8.07;;;;;;;13.33;46.82;100632.00;10490688;28;20231;-62
2023/05/03 07:54:08;;;;;;;12.63;7.43;;;;;;;12.24;47.79;100632.84;10491590;28;20235;-63
2023/05/03 07:59:11;;;;;;;10.03;8.03;;;;;;;14.02;45.94;100643.38;10482552;28;20227;-63
2023/05/03 08:04:13;;;;;;;13.10;8.73;;;;;;;12.32;48.09;100659.66;10488818;28;20234;-63
2023/05/03 08:09:14;;;;;;;11.33;8.23;;;;;;;13.60;46.84;100631.41;10489333;28;20345;-63
2023/05/03 08:14:16;;;;;;;9.17;8.17;;;;;;;14.28;45.44;100662.78;10494846;28;20743;-63
2023/05/03 08:19:18;;;;;;;12.83;8.40;;;;;;;14.15;45.90;100655.38;10485277;28;20904;-63
2023/05/03 08:24:20;;;;;;;10.30;7.97;;;;;;;14.37;45.80;100626.63;10484010;28;20219;-63
2023/05/03 08:29:22;;;;;;;11.67;8.13;;;;;;;14.41;46.01;100592.94;10482266;28;20239;-63
2023/05/03 08:34:25;;;;;;;9.40;7.73;;;;;;;13.68;45.84;100576.66;10488810;28;20233;-64
2023/05/03 08:39:26;;;;;;;14.20;8.90;;;;;;;13.47;46.74;100629.34;10489080;28;20240;-63
2023/05/03 08:44:28;;;;;;;9.33;7.43;;;;;;;15.04;45.55;100593.16;10487418;28;20227;-64
2023/05/03 08:49:33;;;;;;;11.87;7.87;;;;;;;14.26;45.27;100541.84;10490056;28;20759;-63
2023/05/03 08:54:35;;;;;;;11.23;8.67;;;;;;;15.07;45.61;100603.56;10493900;28;20231;-64
2023/05/03 08:59:50;;;;;;;9.63;8.30;;;;;;;14.75;45.50;100573.41;10495163;22;20239;-39
2023/05/03 09:04:52;;;;;;;12.20;8.50;;;;;;;15.02;44.47;100514.38;10490608;28;20231;-39
2023/05/03 09:09:53;;;;;;;10.67;8.03;;;;;;;15.43;45.35;100534.34;10480061;28;20253;-39
2023/05/03 09:14:55;;;;;;;12.63;8.10;;;;;;;15.14;44.97;100503.88;10488350;28;20246;-39
2023/05/03 09:19:58;;;;;;;9.33;8.13;;;;;;;16.17;43.56;100495.84;10498508;28;20236;-39
2023/05/03 09:25:00;;;;;;;11.90;8.37;;;;;;;15.89;44.43;100477.06;10494158;28;20232;-40
2023/05/03 09:30:17;;;;;;;10.80;8.40;;;;;;;16.20;43.89;100473.84;10486850;28;20233;-40
2023/05/03 09:35:19;;;;;;;11.10;7.93;;;;;;;16.16;44.86;100505.00;10481799;28;20238;-39
2023/05/03 09:40:21;;;;;;;12.07;7.90;;;;;;;16.11;43.88;100471.53;10486418;28;20749;-40
2023/05/03 09:45:23;;;;;;;10.37;7.17;;;;;;;16.44;43.37;100467.03;10483905;28;20241;-39
2023/05/03 09:50:25;;;;;;;10.53;8.37;;;;;;;16.70;43.66;100429.41;10484539;28;20243;-39
2023/05/03 09:55:28;;;;;;;10.33;8.47;;;;;;;17.73;42.12;100437.69;10487180;28;20803;-39
2023/05/03 10:00:32;;;;;;;11.27;8.30;;;;;;;17.22;42.54;100418.72;10485459;28;20223;-40
2023/05/03 10:05:41;;;;;;;11.00;8.30;;;;;;;16.77;43.73;100397.81;10487046;28;20227;-39
2023/05/03 10:10:49;;;;;;;11.77;7.93;;;;;;;17.80;42.63;100404.31;10493268;28;20589;-40
2023/05/03 10:16:02;;;;;;;11.03;7.80;;;;;;;16.40;43.95;100400.16;10487163;28;20618;-40
2023/05/03 10:21:10;;;;;;;11.30;8.60;;;;;;;18.12;42.16;100372.66;10485803;28;20227;-40
2023/05/03 10:26:13;;;;;;;12.63;8.47;;;;;;;16.94;43.33;100349.53;10488730;28;20235;-41
2023/05/03 10:31:46;;;;;;;10.53;8.30;;;;;;;17.18;43.44;100389.41;10487034;28;20224;-40
2023/05/03 10:36:54;;;;;;;13.13;8.47;;;;;;;17.29;43.27;100333.81;10469863;28;20228;-40
2023/05/03 10:41:58;;;;;;;10.70;7.93;;;;;;;17.67;42.85;100372.78;10483571;28;20227;-40
2023/05/03 10:47:12;;;;;;;13.30;7.90;;;;;;;17.80;42.89;100340.22;10485743;28;20231;-40
2023/05/03 10:52:39;;;;;;;12.93;7.53;;;;;;;17.53;43.14;100355.75;10485306;28;20251;-41
2023/05/03 10:57:45;;;;;;;8.23;7.20;;;;;;;17.55;42.71;100302.25;10484416;28;20231;-44
2023/05/03 11:06:32;;;;;;;9.43;6.80;;;;;;;14.68;47.60;100447.78;10422478;27;20906;-66
2023/05/03 11:11:35;;;;;;;7.60;6.80;;;;;;;15.84;45.70;100377.00;10330122;28;20328;-66
2023/05/03 11:16:46;;;;;;;10.40;7.33;;;;;;;16.15;45.75;100403.44;10350478;28;20320;-66
2023/05/03 11:21:48;;;;;;;10.07;7.17;;;;;;;17.52;43.59;100400.91;10362931;28;20715;-66
2023/05/03 11:26:50;;;;;;;7.17;6.27;;;;;;;16.67;44.92;100356.88;10361361;28;20241;-66
2023/05/03 11:31:52;;;;;;;8.87;6.83;;;;;;;16.84;45.00;100360.78;10363343;28;20237;-66
2023/05/03 11:36:53;;;;;;;7.50;5.93;;;;;;;16.41;45.12;100350.47;10362786;28;20236;-66
2023/05/03 11:42:03;;;;;;;8.73;7.43;;;;;;;16.24;45.25;100329.25;10363106;28;20241;-65
2023/05/03 11:47:05;;;;;;;9.87;6.70;;;;;;;17.76;43.41;100354.38;10358000;28;20225;-65
2023/05/03 11:52:07;;;;;;;8.47;6.57;;;;;;;16.27;44.16;100305.63;10358226;28;20234;-65
2023/05/03 11:57:13;;;;;;;11.03;6.07;;;;;;;16.78;43.88;100300.28;10362803;28;20779;-65
2023/05/03 12:02:15;;;;;;;7.53;6.60;;;;;;;17.41;43.58;100314.19;10358733;28;20264;-65
2023/05/03 12:07:17;;;;;;;8.00;5.53;;;;;;;17.51;42.33;100298.31;10362719;28;20229;-66
2023/05/03 12:12:23;;;;;;;8.37;5.90;;;;;;;17.02;42.08;100254.69;10360759;28;20234;-66
2023/05/03 12:17:37;;;;;;;8.67;6.33;;;;;;;17.80;43.06;100267.13;10332188;28;20244;-65
2023/05/03 12:22:47;;;;;;;8.97;5.13;;;;;;;18.61;42.17;100286.16;10329598;28;20610;-66
2023/05/03 12:27:52;;;;;;;6.93;5.10;;;;;;;17.71;42.50;100230.53;10336297;28;20481;-66
2023/05/03 12:33:15;;;;;;;6.87;5.63;;;;;;;18.53;40.23;100253.94;10332830;28;20243;-65
2023/05/03 12:38:17;;;;;;;6.67;5.13;;;;;;;17.43;41.21;100193.09;10337463;28;20217;-66
2023/05/03 12:43:24;;;;;;;6.70;5.43;;;;;;;18.53;40.21;100229.56;10330530;28;20230;-65
2023/05/03 12:48:28;;;;;;;5.33;4.83;;;;;;;18.94;40.33;100236.97;10340812;28;20295;-66
2023/05/03 12:53:33;;;;;;;5.37;4.73;;;;;;;17.75;41.03;100202.00;10337565;28;20589;-65
2023/05/03 12:58:41;;;;;;;7.10;5.00;;;;;;;17.63;40.76;100182.97;10339587;28;20245;-66
2023/05/03 13:03:49;;;;;;;6.53;5.00;;;;;;;18.35;39.93;100225.78;10329580;28;20257;-65
2023/05/03 13:09:11;;;;;;;7.00;5.00;;;;;;;17.67;39.52;100194.97;10333884;28;20328;-65
2023/05/03 13:14:20;;;;;;;6.57;5.33;;;;;;;17.54;40.82;100179.69;10330403;28;20230;-66
2023/05/03 13:19:22;;;;;;;5.97;4.53;;;;;;;17.98;40.93;100201.34;10335068;28;20312;-66
2023/05/03 13:24:24;;;;;;;6.83;4.17;;;;;;;18.84;39.67;100147.19;10336463;28;20244;-66
2023/05/03 13:29:27;;;;;;;6.93;4.70;;;;;;;18.27;39.31;100201.66;10328123;28;20237;-65
2023/05/03 13:34:28;;;;;;;5.73;4.60;;;;;;;18.86;39.07;100174.91;10332711;28;20229;-66
2023/05/03 13:39:31;;;;;;;5.30;4.80;;;;;;;18.69;38.88;100149.50;10329079;28;20795;-66
2023/05/03 13:44:32;;;;;;;5.78;3.97;;;;;;;18.40;39.76;100152.78;10332715;28;20240;-66
2023/05/03 13:49:34;;;;;;;7.70;4.33;;;;;;;18.27;39.47;100155.63;10317328;28;20234;-67
2023/05/03 13:54:36;;;;;;;6.30;4.80;;;;;;;18.89;38.34;100143.78;10325181;28;20229;-66
2023/05/03 13:59:38;;;;;;;6.25;4.22;;;;;;;19.07;38.05;100151.88;10322542;28;20240;-65
2023/05/03 14:04:40;;;;;;;6.75;3.83;;;;;;;18.90;37.65;100074.97;10328756;28;20241;-66
2023/05/03 14:09:43;;;;;;;5.87;4.00;;;;;;;19.35;36.97;100110.53;10332069;28;20665;-65
2023/05/03 14:14:44;;;;;;;5.55;4.43;;;;;;;18.49;38.30;100107.25;10324476;28;20233;-65
2023/05/03 14:19:46;;;;;;;6.45;4.20;;;;;;;19.23;37.85;100035.63;10323826;28;20233;-65
2023/05/03 14:24:49;;;;;;;6.07;4.07;;;;;;;17.94;37.83;100064.78;10326561;28;20234;-66
2023/05/03 14:29:50;;;;;;;4.60;3.30;;;;;;;19.42;36.42;100041.72;10326384;28;20244;-66
2023/05/03 14:34:52;;;;;;;5.70;3.65;;;;;;;18.59;36.63;100066.03;10323489;28;20244;-65
2023/05/03 14:39:54;;;;;;;5.28;3.70;;;;;;;19.98;35.63;99999.50;10320805;28;20260;-70
2023/05/03 14:44:57;;;;;;;6.18;3.55;;;;;;;18.38;36.74;100051.94;10322142;28;20237;-65
2023/05/03 14:49:59;;;;;;;4.60;3.80;;;;;;;18.85;36.35;100056.66;10331881;28;20292;-65
2023/05/03 14:55:02;;;;;;;4.70;3.60;;;;;;;20.98;34.70;100046.16;10327252;28;20262;-65
2023/05/03 15:00:12;;;;;;;6.10;3.13;;;;;;;18.78;34.56;100047.81;10309014;23;20243;-90
2023/05/03 15:05:14;;;;;;;3.57;3.00;;;;;;;19.46;34.69;100070.88;10268264;28;20384;-89
2023/05/03 15:10:16;;;;;;;4.93;3.50;;;;;;;19.68;34.72;100016.84;10311234;28;20337;-88
2023/05/03 15:15:17;;;;;;;6.28;3.85;;;;;;;20.21;35.03;100030.38;10314753;28;20399;-89
2023/05/03 15:20:21;;;;;;;4.72;3.70;;;;;;;20.42;35.60;100024.25;10324397;28;20328;-90
2023/05/03 15:25:22;;;;;;;5.85;3.45;;;;;;;20.09;34.97;100019.53;10319538;28;20249;-89
2023/05/03 15:30:24;;;;;;;3.47;3.10;;;;;;;19.82;34.17;100008.41;10316614;28;20236;-90
2023/05/03 15:35:26;;;;;;;4.50;3.33;;;;;;;19.68;34.61;100016.00;10313561;28;20206;-91
2023/05/03 15:40:28;;;;;;;3.80;2.93;;;;;;;20.01;34.34;99962.88;10314266;28;20241;-90
2023/05/03 15:45:30;;;;;;;3.70;3.00;;;;;;;19.36;34.83;100019.09;10329804;28;20715;-92
2023/05/03 15:50:35;;;;;;;4.68;2.90;;;;;;;20.24;33.87;99989.97;10326525;28;20594;-92
2023/05/03 15:55:37;;;;;;;3.27;2.50;;;;;;;20.79;32.89;99977.59;10352426;28;20286;-92
2023/05/03 16:00:39;;;;;;;6.32;3.28;;;;;;;18.81;35.03;99993.97;10336243;28;20767;-91
2023/05/03 16:05:41;;;;;;;5.13;3.20;;;;;;;20.00;33.77;100012.84;10333477;28;20266;-91
2023/05/03 16:10:42;;;;;;;3.40;2.50;;;;;;;19.76;33.50;100016.47;10327608;28;20238;-92
2023/05/03 16:15:45;;;;;;;3.37;2.80;;;;;;;19.89;33.92;99985.50;10328145;28;20233;-92
2023/05/03 16:20:48;;;;;;;2.65;2.45;;;;;;;19.47;33.85;99996.56;10333721;28;20329;-93
2023/05/03 16:25:50;;;;;;;4.25;2.70;;;;;;;20.20;33.04;99988.81;10320504;28;20327;-92
2023/05/03 16:30:52;;;;;;;3.80;3.30;;;;;;;20.39;33.33;99935.06;10331592;28;20230;-91
2023/05/03 16:35:53;;;;;;;3.33;3.00;;;;;;;18.67;34.15;99964.59;10326137;28;20344;-91
2023/05/03 16:40:59;;;;;;;3.67;2.65;;;;;;;19.78;33.66;99986.34;10335460;28;20817;-92
2023/05/03 16:46:01;;;;;;;4.07;2.80;;;;;;;19.78;34.06;99951.06;10323529;28;20319;-91
2023/05/03 16:51:03;;;;;;;3.50;3.20;;;;;;;18.75;35.13;99973.22;10337698;28;20225;-91
2023/05/03 16:56:05;;;;;;;3.63;3.20;;;;;;;20.34;34.46;99942.31;10327329;28;20229;-93
2023/05/03 17:01:07;;;;;;;3.30;3.00;;;;;;;20.29;34.54;99941.16;10333092;28;20324;-91
2023/05/03 17:06:11;;;;;;;5.60;3.22;;;;;;;20.10;34.70;99898.97;10331399;28;20249;-90
2023/05/03 17:11:13;;;;;;;3.53;2.78;;;;;;;20.63;34.17;99899.56;10321644;28;20267;-91
2023/05/03 17:16:16;;;;;;;4.80;2.90;;;;;;;20.48;33.94;99872.97;10327390;28;20700;-91
2023/05/03 17:21:19;;;;;;;5.30;3.30;;;;;;;20.62;34.13;99879.72;10335561;28;20284;-90
2023/05/03 17:26:21;;;;;;;3.23;2.87;;;;;;;19.47;35.38;99936.84;10347280;28;20233;-91
2023/05/03 17:31:25;;;;;;;3.57;2.87;;;;;;;20.73;34.42;99896.97;10331057;28;20230;-90
2023/05/03 17:36:28;;;;;;;4.20;2.73;;;;;;;19.72;35.23;99954.72;10332843;28;20229;-90
2023/05/03 17:41:30;;;;;;;4.23;3.00;;;;;;;19.97;34.91;99926.44;10335295;28;20780;-91
2023/05/03 17:46:31;;;;;;;3.50;3.03;;;;;;;18.34;36.08;99950.53;10333839;28;20242;-90
2023/05/03 17:51:36;;;;;;;4.87;3.00;;;;;;;19.08;35.37;99954.72;10319166;28;20232;-90
2023/05/03 17:56:37;;;;;;;4.23;2.80;;;;;;;19.25;35.41;99988.22;10331932;28;20229;-89
2023/05/03 18:01:39;;;;;;;5.17;2.70;;;;;;;19.29;35.72;99969.56;10321566;28;20337;-93
2023/05/03 18:06:45;;;;;;;3.10;2.80;;;;;;;18.96;36.24;99992.69;10330133;28;20237;-93
2023/05/03 18:11:47;;;;;;;4.30;3.00;;;;;;;18.92;35.72;99964.38;10328318;28;20233;-91
2023/05/03 18:16:49;;;;;;;3.43;3.03;;;;;;;17.15;36.82;99919.34;10324768;28;20323;-92
2023/05/03 18:21:54;;;;;;;3.07;2.77;;;;;;;18.43;35.67;99956.44;10329445;28;20234;-91
2023/05/03 18:26:57;;;;;;;6.10;2.70;;;;;;;17.69;36.23;99965.56;10321319;28;20250;-91
2023/05/03 18:32:00;;;;;;;2.77;2.50;;;;;;;18.70;35.57;100004.78;10335192;28;20244;-91
2023/05/03 18:37:03;;;;;;;2.67;2.47;;;;;;;18.61;35.52;99990.75;10333318;28;20231;-90
2023/05/03 18:42:05;;;;;;;4.27;2.90;;;;;;;18.00;35.88;99974.53;10342198;28;20374;-91
2023/05/03 18:47:09;;;;;;;4.23;2.50;;;;;;;18.24;36.19;100029.59;10322085;28;20235;-89
2023/05/03 18:52:11;;;;;;;4.33;2.97;;;;;;;17.28;36.77;99972.47;10330781;28;20309;-89
2023/05/03 18:57:13;;;;;;;3.30;2.77;;;;;;;17.73;36.48;100022.75;10347810;28;20221;-90
2023/05/03 19:02:15;;;;;;;3.37;3.03;;;;;;;17.75;36.15;100011.69;10340716;28;20238;-90
2023/05/03 19:07:17;;;;;;;2.97;2.67;;;;;;;19.12;35.58;99997.41;10325824;28;20330;-90
2023/05/03 19:12:19;;;;;;;3.50;2.63;;;;;;;17.95;36.63;100046.66;10320131;28;20236;-90
2023/05/03 19:17:21;;;;;;;3.90;2.70;;;;;;;18.14;36.30;100044.75;10327642;28;20972;-90
2023/05/03 19:22:23;;;;;;;3.67;2.67;;;;;;;18.58;35.97;100034.59;10330205;28;20225;-89
2023/05/03 19:27:25;;;;;;;3.30;2.87;;;;;;;18.00;36.56;100060.34;10327281;28;20258;-90
2023/05/03 19:32:26;;;;;;;2.97;2.67;;;;;;;16.44;37.22;99970.06;10328866;28;20605;-90
2023/05/03 19:37:29;;;;;;;4.23;2.70;;;;;;;18.55;35.81;100056.72;10318986;28;20233;-88
2023/05/03 19:42:31;;;;;;;4.63;2.70;;;;;;;18.42;36.03;100066.69;10325082;28;20620;-90
2023/05/03 19:47:34;;;;;;;4.33;2.57;;;;;;;18.72;35.13;100038.72;10326283;28;20324;-89
2023/05/03 19:52:36;;;;;;;3.77;2.53;;;;;;;18.16;35.96;100094.09;10325994;28;20635;-90
2023/05/03 19:57:38;;;;;;;4.53;2.50;;;;;;;19.01;35.00;100042.47;10317953;28;20234;-90
2023/05/03 20:02:40;;;;;;;3.67;2.20;;;;;;;18.55;35.03;100078.41;10334598;28;20592;-89
2023/05/03 20:07:42;;;;;;;3.30;2.57;;;;;;;18.52;35.04;100076.13;10328795;28;20586;-89
2023/05/03 20:12:44;;;;;;;3.27;2.57;;;;;;;17.51;35.88;100073.75;10325739;28;20347;-89
2023/05/03 20:17:47;;;;;;;3.20;2.53;;;;;;;17.75;35.48;100066.69;10319769;28;20292;-89
2023/05/03 20:22:49;;;;;;;2.93;2.60;;;;;;;17.77;36.11;100082.69;10328690;28;20877;-89
2023/05/03 20:27:52;;;;;;;2.80;2.50;;;;;;;17.80;35.84;100088.47;10322027;28;20320;-90
2023/05/03 20:32:54;;;;;;;3.83;2.40;;;;;;;17.03;36.32;100059.00;10318538;28;20309;-90
2023/05/03 20:37:56;;;;;;;4.20;2.40;;;;;;;17.54;36.41;100067.91;10324384;28;20249;-90
2023/05/03 20:43:00;;;;;;;4.97;2.43;;;;;;;16.65;37.57;100076.13;10344821;28;20229;-90
2023/05/03 20:48:02;;;;;;;2.90;2.60;;;;;;;17.21;36.89;100116.88;10318274;28;20320;-90
2023/05/03 20:53:04;;;;;;;4.37;2.60;;;;;;;17.12;36.75;100092.84;10316415;28;20734;-90
2023/05/03 20:58:06;;;;;;;4.60;2.43;;;;;;;17.55;36.19;100081.22;10324515;28;20416;-89
2023/05/03 21:03:07;;;;;;;3.27;2.70;;;;;;;16.85;37.08;100099.47;10311563;28;20241;-89
2023/05/03 21:08:09;;;;;;;3.83;2.80;;;;;;;15.98;38.11;100086.38;10319614;28;20240;-90
2023/05/03 21:13:11;;;;;;;4.13;2.90;;;;;;;14.56;39.43;100021.97;10318736;28;20230;-90
2023/05/03 21:18:13;;;;;;;2.70;2.50;;;;;;;15.39;39.44;100142.91;10322266;28;20839;-89
2023/05/03 21:23:15;;;;;;;3.17;2.70;;;;;;;14.28;40.08;100059.81;10311801;28;20253;-90
2023/05/03 21:28:16;;;;;;;3.40;2.90;;;;;;;14.94;39.49;100107.63;10328809;28;20238;-88
2023/05/03 21:33:18;;;;;;;3.90;2.80;;;;;;;16.41;37.86;100092.03;10319252;28;20285;-90
2023/05/03 21:38:20;;;;;;;4.73;2.87;;;;;;;16.05;38.31;100133.06;10324718;28;20226;-89
2023/05/03 21:43:22;;;;;;;3.40;2.83;;;;;;;14.96;40.19;100110.94;10316573;28;20585;-89
2023/05/03 21:48:24;;;;;;;5.23;2.90;;;;;;;14.71;40.48;100118.75;10327813;28;20229;-88
2023/05/03 21:53:25;;;;;;;6.90;2.63;;;;;;;15.56;38.80;100110.97;10329184;28;20929;-89
2023/05/03 21:58:28;;;;;;;5.40;2.90;;;;;;;15.11;39.68;100100.78;10319452;28;20241;-89
2023/05/03 22:03:29;;;;;;;3.67;2.53;;;;;;;14.73;40.25;100112.13;10317042;28;20993;-89
2023/05/03 22:08:31;;;;;;;4.53;2.67;;;;;;;13.34;41.52;100000.16;10322520;28;20243;-90
2023/05/03 22:13:35;;;;;;;4.57;2.63;;;;;;;14.51;40.62;100106.06;10318936;28;20412;-89
2023/05/03 22:18:51;;;;;;;5.80;2.90;;;;;;;14.23;40.89;100090.03;10325083;28;20269;-89
2023/05/03 22:23:53;;;;;;;5.03;3.03;;;;;;;14.45;40.44;100114.13;10337628;28;20755;-89
2023/05/03 22:28:54;;;;;;;3.77;2.67;;;;;;;15.85;39.15;100082.69;10310893;28;20719;-89
2023/05/03 22:33:56;;;;;;;6.93;2.70;;;;;;;16.33;38.38;100050.94;10317065;28;20241;-90
2023/05/03 22:39:04;;;;;;;3.20;2.90;;;;;;;14.58;40.95;100122.25;10320975;28;20325;-89
2023/05/03 22:44:05;;;;;;;4.23;2.97;;;;;;;13.48;41.63;100039.56;10320538;28;20823;-88
2023/05/03 22:49:07;;;;;;;8.20;3.37;;;;;;;14.33;40.63;100109.31;10307040;28;20237;-90
2023/05/03 22:54:09;;;;;;;3.07;2.73;;;;;;;14.15;40.21;100069.47;10313450;28;20222;-89
2023/05/03 22:59:11;;;;;;;3.27;2.97;;;;;;;15.37;39.70;100087.50;10323865;28;20269;-89
2023/05/03 23:04:14;;;;;;;3.43;2.70;;;;;;;13.42;41.95;100045.72;10309677;28;20236;-88
2023/05/03 23:09:16;;;;;;;4.57;2.90;;;;;;;14.50;40.65;100112.47;10314432;28;20221;-89
2023/05/03 23:14:18;;;;;;;6.07;3.10;;;;;;;13.76;41.82;100087.06;10314709;28;20214;-88
2023/05/03 23:19:19;;;;;;;5.13;3.30;;;;;;;13.56;41.80;100043.09;10309382;28;20252;-89